Time;durP1;ratioP1;P1;durP2;ratioP2;P2;SDS_P1;SDS_P2;PMS_P1;PMS_P2;Temp;Humidity;BMP_temperature;BMP_pressure;BME280_temperature;BME280_humidity;BME280_pressure;Samples;Min_cycle;Max_cycle;Signal;HPM_P1;HPM_P2
2022/02/04 07:47:52;;;;;;;14.83;5.50;;;;;;;;;;4986601;28;20068;-60
2022/02/04 07:50:21;;;;;;;19.27;7.13;;;;;;;;;;5007556;28;20033;-60
2022/02/04 07:52:50;;;;;;;16.07;7.07;;;;;;;;;;5014662;28;20022;-60
2022/02/04 07:55:17;;;;;;;15.00;6.33;;;;;;;;;;5013953;28;20022;-59
2022/02/04 07:57:43;;;;;;;17.27;6.07;;;;;;;;;;5014381;28;20037;-60
2022/02/04 08:00:13;;;;;;;15.10;6.27;;;;;;;;;;5015059;28;20033;-59
2022/02/04 08:02:39;;;;;;;12.97;5.40;;;;;;;;;;5013163;28;20021;-60
2022/02/04 08:05:07;;;;;;;18.27;6.53;;;;;;;;;;5013734;28;20410;-60
2022/02/04 08:07:43;;;;;;;12.40;7.00;;;;;;;;;;5011997;28;20029;-61
2022/02/04 08:11:07;;;;;;;14.47;6.30;;;;;;;;;;5015340;28;20026;-60
2022/02/04 08:13:20;;;;;;;15.70;7.07;;;;;;;;;;5011106;28;20064;-61
2022/02/04 08:18:47;;;;;;;10.80;6.37;;;;;;;;;;5013683;28;20133;-60
2022/02/04 08:24:06;;;;;;;12.68;6.65;;;;;;;;;;5014234;28;20045;-61
2022/02/04 08:46:49;;;;;;;15.13;7.90;;;;;;;;;;4994819;28;20499;-61
2022/02/04 08:53:05;;;;;;;26.13;9.07;;;;;;;;;;5013306;28;20076;-60
2022/02/04 08:55:44;;;;;;;19.13;9.10;;;;;;;;;;4994577;28;20026;-60
2022/02/04 08:58:25;;;;;;;15.93;8.57;;;;;;;;;;5000509;28;20128;-61
2022/02/04 09:04:12;;;;;;;13.68;8.82;;;;;;;;;;5012191;28;20471;-61
2022/02/04 09:06:43;;;;;;;16.92;9.45;;;;;;;;;;5012707;28;20018;-61
2022/02/04 09:09:15;;;;;;;10.40;7.53;;;;;;;;;;5013049;28;20125;-61
2022/02/04 09:20:24;;;;;;;18.10;9.77;;;;;;;;;;5014121;28;20041;-61
2022/02/04 09:22:50;;;;;;;15.45;9.68;;;;;;;;;;5014170;28;20014;-61
2022/02/04 09:25:16;;;;;;;16.60;10.18;;;;;;;;;;5010878;28;20026;-61
2022/02/04 09:27:42;;;;;;;21.05;10.13;;;;;;;;;;5014071;28;20033;-61
2022/02/04 09:30:11;;;;;;;16.35;9.98;;;;;;;;;;5029825;28;20375;-61
2022/02/04 09:32:38;;;;;;;23.02;10.13;;;;;;;;;;5013496;28;20018;-61
2022/02/04 09:35:05;;;;;;;14.57;9.63;;;;;;;;;;5012483;28;20034;-61
2022/02/04 09:37:31;;;;;;;22.42;10.38;;;;;;;;;;5002945;28;20025;-60
2022/02/04 09:39:58;;;;;;;15.90;10.23;;;;;;;;;;5009072;28;20056;-61
2022/02/04 09:42:24;;;;;;;12.93;8.93;;;;;;;;;;5010559;28;20456;-60
2022/02/04 09:44:50;;;;;;;14.23;9.77;;;;;;;;;;5013402;28;20037;-61
2022/02/04 09:47:20;;;;;;;14.82;9.90;;;;;;;;;;5010219;28;20201;-61
2022/02/04 09:49:53;;;;;;;17.33;9.55;;;;;;;;;;5013210;28;20037;-61
2022/02/04 10:08:56;;;;;;;20.48;10.88;;;;;;;;;;5011106;28;20044;-60
2022/02/04 10:19:42;;;;;;;21.77;10.73;;;;;;;;;;5011771;28;20046;-60
2022/02/04 10:22:08;;;;;;;18.35;11.07;;;;;;;;;;5009725;28;20117;-60
2022/02/04 10:24:35;;;;;;;20.83;12.55;;;;;;;;;;5012189;28;20102;-61
2022/02/04 10:27:16;;;;;;;23.00;13.07;;;;;;;;;;5011532;28;20364;-61
2022/02/04 10:29:43;;;;;;;38.85;24.13;;;;;;;;;;5012690;28;20491;-61
2022/02/04 10:32:09;;;;;;;21.45;12.80;;;;;;;;;;5011174;28;20455;-60
2022/02/04 10:34:38;;;;;;;19.35;11.48;;;;;;;;;;5012487;28;20368;-61
2022/02/04 10:37:17;;;;;;;15.60;11.35;;;;;;;;;;5011059;28;20578;-61
2022/02/04 10:47:44;;;;;;;19.77;10.52;;;;;;;;;;5015680;28;20056;-61
2022/02/04 10:50:39;;;;;;;25.27;12.00;;;;;;;;;;5016575;28;20032;-60
2022/02/04 11:03:31;;;;;;;21.77;9.38;;;;;;;;;;5016363;28;20068;-60
2022/02/04 11:06:28;;;;;;;17.00;9.25;;;;;;;;;;5015191;28;20030;-60
2022/02/04 11:11:46;;;;;;;18.27;10.13;;;;;;;;;;5015495;28;20072;-60
2022/02/04 11:36:24;;;;;;;20.10;12.57;;;;;;;;;;4998252;28;20070;-60
2022/02/04 11:53:54;;;;;;;22.75;16.58;;;;;;;;;;5015207;28;20426;-59
2022/02/04 11:56:20;;;;;;;26.92;17.00;;;;;;;;;;5009543;28;20586;-60
2022/02/04 11:59:00;;;;;;;25.77;18.60;;;;;;;;;;5015070;28;20467;-60
2022/02/04 12:01:41;;;;;;;24.85;18.90;;;;;;;;;;5011763;28;20651;-60
2022/02/04 12:04:21;;;;;;;25.08;17.90;;;;;;;;;;5013141;28;20037;-60
2022/02/04 12:06:47;;;;;;;22.85;18.85;;;;;;;;;;5013055;28;20034;-60
2022/02/04 12:09:15;;;;;;;25.00;20.05;;;;;;;;;;5013404;28;20037;-60
2022/02/04 12:11:41;;;;;;;28.20;21.05;;;;;;;;;;5013883;28;20017;-60
2022/02/04 12:14:10;;;;;;;26.27;21.30;;;;;;;;;;5013935;28;20049;-60
2022/02/04 12:16:37;;;;;;;28.13;21.80;;;;;;;;;;5013771;28;20028;-59
2022/02/04 12:19:07;;;;;;;29.17;22.50;;;;;;;;;;5013471;28;20022;-60
2022/02/04 12:21:44;;;;;;;28.13;22.30;;;;;;;;;;5013953;28;20060;-61
2022/02/04 12:24:29;;;;;;;24.42;19.92;;;;;;;;;;5013876;28;20071;-60
2022/02/04 12:27:15;;;;;;;31.73;24.05;;;;;;;;;;5014002;28;20034;-60
2022/02/04 12:29:41;;;;;;;27.63;21.83;;;;;;;;;;5014420;28;20033;-61
2022/02/04 12:32:08;;;;;;;31.38;23.55;;;;;;;;;;5013675;28;20030;-61
2022/02/04 12:34:35;;;;;;;30.10;23.50;;;;;;;;;;5014390;28;20029;-61
2022/02/04 12:37:02;;;;;;;29.58;24.02;;;;;;;;;;5013280;28;20030;-61
2022/02/04 12:39:32;;;;;;;34.03;22.10;;;;;;;;;;5013028;28;20096;-61
2022/02/04 12:42:05;;;;;;;27.20;22.50;;;;;;;;;;5013564;28;20029;-61
2022/02/04 12:44:35;;;;;;;26.08;21.73;;;;;;;;;;5014075;28;20017;-61
2022/02/04 12:47:15;;;;;;;31.52;23.20;;;;;;;;;;5013457;28;20423;-60
2022/02/04 12:49:47;;;;;;;29.45;21.92;;;;;;;;;;5014270;28;20029;-60
2022/02/04 12:54:52;;;;;;;30.10;21.35;;;;;;;;;;5013928;28;20049;-59
2022/02/04 13:10:33;;;;;;;28.63;21.58;;;;;;;;;;5014203;28;20597;-61
2022/02/04 13:13:02;;;;;;;29.08;20.55;;;;;;;;;;5012992;28;20430;-60
2022/02/04 13:15:29;;;;;;;28.17;21.77;;;;;;;;;;5013887;28;20077;-60
2022/02/04 13:17:58;;;;;;;28.52;21.25;;;;;;;;;;5012746;28;20073;-60
2022/02/04 13:20:25;;;;;;;26.63;21.65;;;;;;;;;;5012707;28;20065;-60
2022/02/04 13:22:53;;;;;;;29.17;21.73;;;;;;;;;;5012618;28;20498;-61
2022/02/04 13:25:20;;;;;;;27.27;21.92;;;;;;;;;;5013638;28;20101;-61
2022/02/04 13:28:05;;;;;;;26.35;21.30;;;;;;;;;;5011860;28;20497;-61
2022/02/04 13:30:33;;;;;;;31.90;21.63;;;;;;;;;;5013013;28;20026;-60
2022/02/04 13:33:00;;;;;;;28.10;20.05;;;;;;;;;;5011508;28;20418;-60
2022/02/04 13:35:35;;;;;;;27.00;22.35;;;;;;;;;;5012231;28;20022;-61
2022/02/04 13:38:05;;;;;;;29.42;22.77;;;;;;;;;;5012584;28;20034;-61
2022/02/04 13:41:18;;;;;;;27.92;20.92;;;;;;;;;;5013344;28;20030;-61
2022/02/04 13:46:34;;;;;;;29.40;21.05;;;;;;;;;;5007522;28;20070;-60
2022/02/04 13:51:41;;;;;;;30.30;21.05;;;;;;;;;;5010455;28;20128;-60
2022/02/04 13:54:18;;;;;;;25.15;18.85;;;;;;;;;;5011037;28;20030;-61
2022/02/04 13:56:54;;;;;;;27.80;22.23;;;;;;;;;;5009935;28;20034;-60
2022/02/04 13:59:36;;;;;;;27.08;21.92;;;;;;;;;;5007434;28;20045;-60
2022/02/04 14:02:06;;;;;;;25.75;20.77;;;;;;;;;;5010997;28;20038;-60
2022/02/04 14:04:32;;;;;;;28.63;20.92;;;;;;;;;;5010204;28;20030;-60
2022/02/04 14:07:08;;;;;;;27.73;21.45;;;;;;;;;;5011023;28;20064;-60
2022/02/04 14:09:39;;;;;;;26.60;20.02;;;;;;;;;;5007391;28;20026;-61
2022/02/04 14:12:20;;;;;;;27.77;21.85;;;;;;;;;;5012411;28;20018;-60
2022/02/04 14:14:56;;;;;;;28.88;21.08;;;;;;;;;;5011358;28;20037;-59
2022/02/04 14:17:27;;;;;;;28.33;21.42;;;;;;;;;;5014262;28;20034;-59
2022/02/04 14:19:53;;;;;;;26.92;21.60;;;;;;;;;;5017196;28;20406;-60
2022/02/04 14:22:19;;;;;;;30.58;21.60;;;;;;;;;;5015255;28;20467;-60
2022/02/04 14:24:45;;;;;;;25.60;20.88;;;;;;;;;;5011242;28;20390;-60
2022/02/04 14:27:20;;;;;;;31.98;21.33;;;;;;;;;;5015064;28;20030;-60
2022/02/04 14:29:57;;;;;;;28.88;22.63;;;;;;;;;;5010758;28;20030;-60
2022/02/04 14:32:28;;;;;;;29.83;22.30;;;;;;;;;;5014399;28;20025;-60
2022/02/04 14:54:03;;;;;;;29.88;21.42;;;;;;;;;;5001391;28;20704;-60
2022/02/04 15:01:57;;;;;;;26.58;21.00;;;;;;;;;;4999596;28;20080;-60
2022/02/04 15:04:36;;;;;;;30.98;21.48;;;;;;;;;;4995885;28;20036;-60
2022/02/04 15:07:03;;;;;;;33.70;22.98;;;;;;;;;;4998367;28;20036;-60
2022/02/04 15:09:31;;;;;;;31.77;21.10;;;;;;;;;;4997313;28;20034;-60
2022/02/04 15:11:57;;;;;;;27.25;20.45;;;;;;;;;;5002229;28;20022;-60
2022/02/04 15:14:23;;;;;;;34.20;19.02;;;;;;;;;;4998554;28;20029;-60
2022/02/04 15:16:49;;;;;;;28.88;19.55;;;;;;;;;;5001846;28;20030;-60
2022/02/04 15:19:15;;;;;;;30.33;21.13;;;;;;;;;;5000128;28;20056;-60
2022/02/04 15:21:45;;;;;;;30.63;22.92;;;;;;;;;;5003276;28;20041;-60
2022/02/04 15:24:12;;;;;;;32.72;23.85;;;;;;;;;;4996268;28;20030;-60
2022/02/04 15:26:38;;;;;;;36.25;24.08;;;;;;;;;;5004776;28;20033;-60
2022/02/04 15:29:08;;;;;;;31.30;24.05;;;;;;;;;;4995608;28;20026;-60
2022/02/04 15:37:13;;;;;;;42.45;28.70;;;;;;;;;;4994879;28;20088;-60
2022/02/04 15:39:39;;;;;;;37.72;29.13;;;;;;;;;;4994962;28;20038;-60
2022/02/04 15:42:12;;;;;;;36.35;27.77;;;;;;;;;;4995756;28;20105;-60
2022/02/04 15:44:43;;;;;;;41.90;29.52;;;;;;;;;;4976960;28;20431;-60
2022/02/04 15:47:30;;;;;;;38.45;26.60;;;;;;;;;;4997388;28;20023;-60
2022/02/04 15:50:04;;;;;;;40.47;27.80;;;;;;;;;;5014275;28;20029;-61
2022/02/04 16:05:42;;;;;;;43.03;30.15;;;;;;;;;;5012974;28;20042;-60
2022/02/04 16:08:10;;;;;;;43.67;31.58;;;;;;;;;;5013042;28;20026;-59
2022/02/04 16:18:43;;;;;;;52.28;35.92;;;;;;;;;;4997127;28;20687;-59
2022/02/04 16:21:17;;;;;;;;;;;;;;;;;;5015164;28;20594;-60
2022/02/04 16:23:57;;;;;;;52.42;35.95;;;;;;;;;;5013599;28;20010;-59
2022/02/04 16:28:49;;;;;;;57.17;39.70;;;;;;;;;;5013909;28;20033;-60
2022/02/04 16:31:17;;;;;;;53.90;38.50;;;;;;;;;;5014424;28;20038;-60
2022/02/04 16:33:44;;;;;;;52.67;38.72;;;;;;;;;;5013241;28;20581;-60
2022/02/04 16:36:14;;;;;;;50.90;37.80;;;;;;;;;;5011572;28;20029;-59
2022/02/04 16:38:43;;;;;;;47.55;37.17;;;;;;;;;;5013536;28;20322;-59
2022/02/04 16:41:11;;;;;;;51.27;37.83;;;;;;;;;;5012996;28;20368;-60
2022/02/04 16:43:39;;;;;;;55.70;38.08;;;;;;;;;;5012790;28;20026;-60
2022/02/04 16:46:06;;;;;;;57.33;39.13;;;;;;;;;;5013338;28;20033;-60
2022/02/04 16:48:33;;;;;;;56.13;40.33;;;;;;;;;;5013174;28;20112;-60
2022/02/04 16:50:59;;;;;;;58.42;40.70;;;;;;;;;;5014302;28;20056;-59
2022/02/04 16:53:27;;;;;;;58.20;40.88;;;;;;;;;;5014087;28;20364;-59
2022/02/04 16:55:54;;;;;;;59.15;41.40;;;;;;;;;;5012956;28;20025;-60
2022/02/04 16:58:20;;;;;;;61.13;42.45;;;;;;;;;;5013342;28;20083;-59
2022/02/04 17:00:46;;;;;;;60.40;44.45;;;;;;;;;;5012882;28;20423;-60
2022/02/04 17:03:12;;;;;;;70.63;48.65;;;;;;;;;;5014282;28;20029;-59
2022/02/04 17:05:50;;;;;;;72.57;47.22;;;;;;;;;;5013084;28;20502;-59
2022/02/04 17:08:31;;;;;;;76.90;48.60;;;;;;;;;;5014018;28;20108;-60
2022/02/04 17:10:57;;;;;;;76.00;51.47;;;;;;;;;;5013522;28;20095;-60
2022/02/04 17:13:23;;;;;;;72.75;50.40;;;;;;;;;;5013760;28;20026;-59
2022/02/04 17:15:50;;;;;;;76.07;50.08;;;;;;;;;;5013054;28;20513;-59
2022/02/04 17:18:16;;;;;;;86.07;52.03;;;;;;;;;;5012886;28;20026;-60
2022/02/04 17:20:42;;;;;;;73.45;50.80;;;;;;;;;;5012770;28;20041;-60
2022/02/04 17:23:12;;;;;;;77.30;48.55;;;;;;;;;;5013822;28;20512;-60
2022/02/04 17:25:39;;;;;;;76.53;49.03;;;;;;;;;;5013080;28;20030;-60
2022/02/04 17:28:05;;;;;;;71.95;48.95;;;;;;;;;;5013076;28;20026;-61
2022/02/04 17:30:32;;;;;;;74.10;48.07;;;;;;;;;;5012734;28;20030;-60
2022/02/04 17:32:58;;;;;;;72.72;47.28;;;;;;;;;;5012582;28;20037;-60
2022/02/04 17:35:26;;;;;;;74.72;46.70;;;;;;;;;;4998469;28;20030;-60
2022/02/04 17:37:56;;;;;;;68.77;46.77;;;;;;;;;;4993778;28;20037;-60
2022/02/04 17:40:23;;;;;;;74.37;49.20;;;;;;;;;;5006530;28;20026;-60
2022/02/04 17:42:51;;;;;;;71.80;47.87;;;;;;;;;;5012101;28;20180;-60
2022/02/04 17:45:21;;;;;;;77.50;49.65;;;;;;;;;;5012307;28;20102;-60
2022/02/04 17:47:54;;;;;;;68.30;47.47;;;;;;;;;;5012866;28;20080;-60
2022/02/04 17:50:33;;;;;;;77.35;48.28;;;;;;;;;;5012358;28;20026;-60
2022/02/04 17:53:06;;;;;;;73.13;49.50;;;;;;;;;;5012461;28;20037;-60
2022/02/04 17:55:41;;;;;;;73.10;50.80;;;;;;;;;;5012249;28;20490;-60
2022/02/04 18:08:33;;;;;;;80.73;51.13;;;;;;;;;;5013877;28;20060;-60
2022/02/04 18:11:03;;;;;;;81.22;51.55;;;;;;;;;;5012526;28;20403;-60
2022/02/04 18:13:31;;;;;;;80.90;51.25;;;;;;;;;;5013412;28;20041;-60
2022/02/04 18:15:57;;;;;;;76.55;51.35;;;;;;;;;;5012524;28;20092;-60
2022/02/04 18:18:23;;;;;;;80.90;54.70;;;;;;;;;;5012440;28;20035;-61
2022/02/04 18:20:50;;;;;;;79.70;50.58;;;;;;;;;;5012258;28;20133;-60
2022/02/04 18:23:16;;;;;;;82.03;52.00;;;;;;;;;;5012805;28;20494;-61
2022/02/04 18:25:54;;;;;;;81.75;53.65;;;;;;;;;;5011993;28;20080;-61
2022/02/04 18:28:22;;;;;;;87.97;52.47;;;;;;;;;;5011072;28;20064;-61
2022/02/04 18:30:48;;;;;;;84.43;51.40;;;;;;;;;;5012215;28;20479;-61
2022/02/04 18:33:15;;;;;;;85.43;51.23;;;;;;;;;;5012684;28;20125;-61
2022/02/04 18:35:42;;;;;;;84.47;52.70;;;;;;;;;;5012082;28;20030;-61
2022/02/04 18:38:28;;;;;;;79.10;51.20;;;;;;;;;;5011728;28;20026;-61
2022/02/04 18:49:16;;;;;;;81.40;50.58;;;;;;;;;;5012735;28;20057;-60
2022/02/04 18:51:52;;;;;;;83.03;50.17;;;;;;;;;;5010466;28;20029;-61
2022/02/04 18:59:27;;;;;;;83.83;52.57;;;;;;;;;;5013287;28;20033;-61
2022/02/04 19:01:53;;;;;;;81.30;49.30;;;;;;;;;;5016049;28;20435;-61
2022/02/04 19:04:26;;;;;;;80.63;51.27;;;;;;;;;;5015768;28;20018;-61
2022/02/04 19:07:00;;;;;;;79.60;52.30;;;;;;;;;;5013435;28;20030;-61
2022/02/04 19:09:26;;;;;;;76.38;49.95;;;;;;;;;;5015551;28;20018;-61
2022/02/04 19:11:59;;;;;;;74.75;50.28;;;;;;;;;;5015279;28;20140;-61
2022/02/04 19:14:42;;;;;;;83.80;51.80;;;;;;;;;;5016049;28;20063;-61
2022/02/04 19:17:17;;;;;;;73.70;48.63;;;;;;;;;;5015193;28;20056;-61
2022/02/04 19:19:53;;;;;;;75.75;48.88;;;;;;;;;;5016207;28;20410;-61
2022/02/04 19:24:54;;;;;;;79.68;51.17;;;;;;;;;;5016307;28;20124;-61
2022/02/04 19:27:20;;;;;;;74.28;48.70;;;;;;;;;;4997102;28;20490;-61
2022/02/04 19:29:48;;;;;;;83.88;51.55;;;;;;;;;;5015045;28;20029;-61
2022/02/04 19:32:15;;;;;;;72.57;50.20;;;;;;;;;;5013190;28;20021;-61
2022/02/04 19:34:41;;;;;;;75.53;48.80;;;;;;;;;;5013961;28;20026;-61
2022/02/04 19:37:07;;;;;;;79.32;50.28;;;;;;;;;;5014362;28;20026;-61
2022/02/04 19:39:34;;;;;;;76.75;50.75;;;;;;;;;;5018558;28;20037;-61
2022/02/04 19:42:04;;;;;;;77.55;49.08;;;;;;;;;;5013143;28;20423;-61
2022/02/04 19:44:32;;;;;;;75.93;49.53;;;;;;;;;;5014070;28;20037;-61
2022/02/04 19:47:02;;;;;;;76.50;49.13;;;;;;;;;;5014270;28;20115;-60
2022/02/04 19:49:33;;;;;;;83.07;49.90;;;;;;;;;;5013698;28;20026;-61
2022/02/04 19:52:12;;;;;;;77.90;49.70;;;;;;;;;;5014835;28;20026;-61
2022/02/04 19:55:10;;;;;;;66.90;47.00;;;;;;;;;;5015428;28;20045;-61
2022/02/04 20:15:44;;;;;;;69.07;48.88;;;;;;;;;;5015131;28;20403;-61
2022/02/04 20:25:10;;;;;;;73.35;48.20;;;;;;;;;;5014943;28;20049;-61
2022/02/04 20:27:41;;;;;;;73.03;48.30;;;;;;;;;;5012026;28;20029;-61
2022/02/04 20:30:08;;;;;;;69.30;46.80;;;;;;;;;;5013811;28;20026;-61
2022/02/04 20:32:34;;;;;;;67.85;46.55;;;;;;;;;;5012482;28;20129;-62
2022/02/04 20:35:00;;;;;;;77.43;48.10;;;;;;;;;;5014786;28;20084;-61
2022/02/04 20:37:26;;;;;;;66.72;46.60;;;;;;;;;;5014085;28;20030;-61
2022/02/04 20:39:57;;;;;;;66.50;47.00;;;;;;;;;;5014377;28;20530;-61
2022/02/04 20:42:23;;;;;;;66.20;46.10;;;;;;;;;;5012555;28;20038;-61
2022/02/04 20:45:20;;;;;;;66.93;48.47;;;;;;;;;;5014405;28;20064;-61
2022/02/04 20:47:51;;;;;;;69.25;46.00;;;;;;;;;;5011148;28;20462;-61
2022/02/04 20:50:17;;;;;;;75.35;47.85;;;;;;;;;;5014347;28;20036;-61
2022/02/04 20:52:43;;;;;;;68.75;45.88;;;;;;;;;;5013453;28;20022;-62
2022/02/04 20:55:09;;;;;;;64.75;45.47;;;;;;;;;;5008490;28;20034;-62
2022/02/04 20:57:41;;;;;;;68.32;45.67;;;;;;;;;;4999256;28;20042;-61
2022/02/04 21:00:10;;;;;;;62.15;43.80;;;;;;;;;;5012557;28;20099;-61
2022/02/04 21:02:36;;;;;;;72.97;44.67;;;;;;;;;;5013313;28;20030;-61
2022/02/04 21:05:02;;;;;;;77.90;52.70;;;;;;;;;;5013287;28;20438;-61
2022/02/04 21:15:28;;;;;;;80.65;54.75;;;;;;;;;;5014209;28;20509;-61
2022/02/04 21:17:54;;;;;;;84.20;54.78;;;;;;;;;;5010350;28;20058;-61
2022/02/04 21:20:20;;;;;;;79.97;54.43;;;;;;;;;;5012938;28;20077;-61
2022/02/04 21:22:46;;;;;;;89.57;55.83;;;;;;;;;;5012194;28;20064;-61
2022/02/04 21:25:13;;;;;;;90.40;53.93;;;;;;;;;;5013891;28;20026;-60
2022/02/04 21:27:41;;;;;;;85.50;55.58;;;;;;;;;;5012910;28;20061;-61
2022/02/04 21:30:08;;;;;;;79.50;54.85;;;;;;;;;;5013067;28;20109;-61
2022/02/04 21:32:39;;;;;;;81.43;54.23;;;;;;;;;;5013087;28;20566;-60
2022/02/04 21:37:50;;;;;;;81.97;55.00;;;;;;;;;;5001077;28;20525;-62
2022/02/04 21:40:16;;;;;;;84.50;54.90;;;;;;;;;;5012878;28;20387;-62
2022/02/04 21:42:42;;;;;;;84.60;54.87;;;;;;;;;;5011313;28;20033;-62
2022/02/04 21:45:08;;;;;;;81.73;53.43;;;;;;;;;;5013283;28;20037;-62
2022/02/04 21:47:44;;;;;;;78.90;52.67;;;;;;;;;;5012888;28;20049;-61
2022/02/04 21:50:10;;;;;;;89.50;53.90;;;;;;;;;;5013843;28;20037;-62
2022/02/04 21:52:36;;;;;;;85.33;53.57;;;;;;;;;;5011554;28;20045;-61
2022/02/04 21:55:03;;;;;;;81.87;53.53;;;;;;;;;;5011458;28;20038;-61
2022/02/04 21:57:29;;;;;;;81.67;53.43;;;;;;;;;;5012683;28;20076;-61
2022/02/04 21:59:55;;;;;;;80.33;53.90;;;;;;;;;;5012009;28;20045;-61
2022/02/04 22:02:26;;;;;;;83.93;55.13;;;;;;;;;;5012519;28;20026;-61
2022/02/04 22:04:54;;;;;;;79.00;54.37;;;;;;;;;;5013323;28;20041;-61
2022/02/04 22:07:22;;;;;;;83.03;52.70;;;;;;;;;;5011827;28;20033;-61
2022/02/04 22:14:58;;;;;;;82.03;53.45;;;;;;;;;;5011348;28;20434;-61
2022/02/04 22:17:55;;;;;;;86.73;53.63;;;;;;;;;;5013409;28;20430;-61
2022/02/04 22:23:24;;;;;;;81.53;53.03;;;;;;;;;;5012453;28;20049;-61
2022/02/04 22:25:50;;;;;;;81.57;52.70;;;;;;;;;;5012851;28;20030;-61
2022/02/04 22:28:16;;;;;;;81.63;53.30;;;;;;;;;;5010291;28;20022;-61
2022/02/04 22:30:45;;;;;;;81.65;53.13;;;;;;;;;;5013086;28;20491;-61
2022/02/04 22:33:15;;;;;;;85.83;54.30;;;;;;;;;;5013382;28;20029;-61
2022/02/04 22:35:52;;;;;;;81.50;52.17;;;;;;;;;;5016825;28;20054;-61
2022/02/04 22:43:58;;;;;;;86.63;55.20;;;;;;;;;;5016276;28;20025;-60
2022/02/04 22:49:24;;;;;;;83.33;52.50;;;;;;;;;;5015067;28;20056;-61
2022/02/04 22:57:38;;;;;;;88.53;52.80;;;;;;;;;;5016630;28;20117;-61
2022/02/04 22:59:54;;;;;;;82.13;53.37;;;;;;;;;;5014025;28;20395;-61
2022/02/04 23:02:23;;;;;;;81.70;53.27;;;;;;;;;;5016418;28;20029;-61
2022/02/04 23:04:49;;;;;;;79.80;52.00;;;;;;;;;;5014724;28;20029;-61
2022/02/04 23:07:15;;;;;;;86.53;55.57;;;;;;;;;;5016337;28;20124;-60
2022/02/04 23:09:54;;;;;;;81.37;52.40;;;;;;;;;;5015233;28;20041;-61
2022/02/04 23:12:20;;;;;;;78.63;51.73;;;;;;;;;;5014618;28;20041;-61
2022/02/04 23:14:53;;;;;;;79.50;51.63;;;;;;;;;;5014736;28;20459;-60
2022/02/04 23:17:33;;;;;;;79.60;51.67;;;;;;;;;;5016174;28;20026;-60
2022/02/04 23:20:06;;;;;;;80.13;51.83;;;;;;;;;;5014953;28;20022;-61
2022/02/04 23:22:38;;;;;;;81.87;51.03;;;;;;;;;;5015971;28;20052;-61
2022/02/04 23:27:33;;;;;;;81.20;53.17;;;;;;;;;;5015843;28;20030;-61
2022/02/04 23:30:48;;;;;;;81.90;51.17;;;;;;;;;;5013694;28;20026;-61
2022/02/04 23:46:34;;;;;;;80.03;51.03;;;;;;;;;;5015545;28;20087;-62
2022/02/04 23:51:41;;;;;;;81.53;50.97;;;;;;;;;;5015704;28;20033;-61
2022/02/04 23:54:07;;;;;;;79.80;52.00;;;;;;;;;;5014521;28;20394;-62
2022/02/04 23:56:33;;;;;;;77.70;52.27;;;;;;;;;;5015561;28;20014;-62
